createdAt,value
2018-03-31T00:00:43.088Z,11.63
2018-03-31T00:03:10.473Z,12.37
2018-03-31T00:05:37.879Z,12.13
2018-03-31T00:08:05.256Z,11.30
2018-03-31T00:10:32.713Z,11.95
2018-03-31T00:13:00.889Z,12.45
2018-03-31T00:15:28.291Z,11.25
2018-03-31T00:17:56.426Z,11.75
2018-03-31T00:20:23.801Z,10.90
2018-03-31T00:22:51.967Z,10.63
2018-03-31T00:25:19.343Z,11.70
2018-03-31T00:27:47.520Z,10.00
2018-03-31T00:30:15.404Z,11.82
2018-03-31T00:32:42.775Z,10.65
2018-03-31T00:35:10.185Z,11.75
2018-03-31T00:37:38.386Z,11.50
2018-03-31T00:40:05.833Z,12.13
2018-03-31T00:42:33.217Z,11.35
2018-03-31T00:45:00.627Z,12.07
2018-03-31T00:47:28.780Z,12.27
2018-03-31T00:49:56.148Z,11.60
2018-03-31T00:52:24.304Z,11.45
2018-03-31T00:54:51.695Z,12.88
2018-03-31T00:57:19.088Z,11.15
2018-03-31T00:59:46.468Z,12.20
2018-03-31T01:02:13.851Z,11.07
2018-03-31T01:04:41.256Z,11.82
2018-03-31T01:07:08.671Z,11.80
2018-03-31T01:09:36.046Z,12.73
2018-03-31T01:12:03.448Z,12.23
2018-03-31T01:14:31.656Z,10.55
2018-03-31T01:16:59.121Z,11.50
2018-03-31T01:19:26.501Z,11.52
2018-03-31T01:21:53.927Z,10.40
2018-03-31T01:24:21.336Z,11.68
2018-03-31T01:26:48.728Z,12.07
2018-03-31T01:29:16.107Z,11.43
2018-03-31T01:31:43.504Z,11.30
2018-03-31T01:39:00.873Z,10.43
2018-03-31T01:41:29.024Z,11.23
2018-03-31T01:43:56.425Z,10.95
2018-03-31T01:46:23.824Z,11.20
2018-03-31T01:48:51.336Z,10.95
2018-03-31T01:51:18.707Z,11.45
2018-03-31T01:53:46.083Z,11.32
2018-03-31T01:56:13.501Z,11.68
2018-03-31T01:58:40.895Z,10.30
2018-03-31T02:01:08.304Z,10.02
2018-03-31T02:03:35.697Z,10.07
2018-03-31T02:06:03.096Z,13.02
2018-03-31T02:08:31.238Z,11.82
2018-03-31T02:10:58.663Z,11.02
2018-03-31T02:13:26.044Z,11.68
2018-03-31T02:15:53.430Z,11.95
2018-03-31T02:18:21.599Z,12.85
2018-03-31T02:20:49.765Z,12.30
2018-03-31T02:23:17.931Z,11.35
2018-03-31T02:25:45.323Z,11.48
2018-03-31T02:28:12.716Z,11.43
2018-03-31T02:30:40.092Z,11.55
2018-03-31T02:33:07.488Z,11.73
2018-03-31T02:35:34.871Z,12.27
2018-03-31T02:38:02.288Z,12.00
2018-03-31T02:40:29.737Z,10.77
2018-03-31T02:42:57.088Z,12.40
2018-03-31T02:45:25.241Z,11.63
2018-03-31T02:47:52.632Z,9.75
2018-03-31T02:50:20.037Z,12.10
2018-03-31T02:52:47.412Z,12.45
2018-03-31T02:55:15.557Z,10.60
2018-03-31T02:57:42.952Z,10.85
2018-03-31T03:00:11.125Z,10.27
2018-03-31T03:02:38.809Z,11.30
2018-03-31T03:05:06.178Z,10.95
2018-03-31T03:07:33.587Z,12.37
2018-03-31T03:10:01.762Z,11.40
2018-03-31T03:12:29.904Z,10.07
2018-03-31T03:14:57.296Z,11.07
2018-03-31T03:17:25.480Z,10.18
2018-03-31T03:19:52.854Z,9.80
2018-03-31T03:22:20.224Z,10.38
2018-03-31T03:24:47.643Z,12.48
2018-03-31T03:27:15.020Z,10.90
2018-03-31T03:29:42.411Z,11.50
2018-03-31T03:32:09.807Z,11.63
2018-03-31T03:34:37.201Z,11.27
2018-03-31T03:37:04.623Z,10.05
2018-03-31T03:39:32.013Z,10.25
2018-03-31T03:41:59.427Z,12.50
2018-03-31T03:44:26.813Z,10.10
2018-03-31T03:46:54.224Z,10.70
2018-03-31T03:49:22.375Z,11.55
2018-03-31T03:51:49.747Z,11.40
2018-03-31T03:54:17.939Z,11.10
2018-03-31T03:56:45.315Z,10.60
2018-03-31T03:59:12.772Z,10.32
2018-03-31T04:01:40.208Z,9.18
2018-03-31T04:04:07.666Z,12.07
2018-03-31T04:06:35.035Z,10.07
2018-03-31T04:09:02.414Z,10.55
2018-03-31T04:11:29.811Z,10.75
2018-03-31T04:13:57.285Z,10.40
2018-03-31T04:16:24.650Z,11.10
2018-03-31T04:18:52.057Z,9.95
2018-03-31T04:21:20.219Z,9.70
2018-03-31T04:23:47.621Z,10.95
2018-03-31T04:26:15.089Z,9.73
2018-03-31T04:28:42.451Z,10.93
2018-03-31T04:31:09.844Z,10.68
2018-03-31T04:33:37.255Z,10.57
2018-03-31T04:36:04.623Z,10.90
2018-03-31T04:38:32.027Z,12.18
2018-03-31T04:41:00.206Z,10.98
2018-03-31T04:43:28.360Z,10.45
2018-03-31T04:45:56.528Z,12.18
2018-03-31T04:48:23.915Z,10.43
2018-03-31T04:50:51.321Z,11.48
2018-03-31T04:53:18.695Z,10.88
2018-03-31T04:55:46.873Z,10.45
2018-03-31T04:58:15.115Z,10.30
2018-03-31T05:00:42.499Z,12.50
2018-03-31T05:03:10.676Z,11.95
2018-03-31T05:05:38.827Z,10.38
2018-03-31T05:08:06.210Z,11.35
2018-03-31T05:10:34.376Z,11.57
2018-03-31T05:13:02.520Z,11.30
2018-03-31T05:15:29.930Z,11.25
2018-03-31T05:17:57.401Z,11.55
2018-03-31T05:20:24.820Z,11.30
2018-03-31T05:22:53.024Z,10.85
2018-03-31T05:25:20.395Z,9.95
2018-03-31T05:27:47.833Z,11.70
2018-03-31T05:30:15.218Z,11.32
2018-03-31T05:32:42.627Z,10.95
2018-03-31T05:35:10.101Z,11.63
2018-03-31T05:37:37.561Z,11.85
2018-03-31T05:40:04.959Z,10.90
2018-03-31T05:42:32.351Z,10.95
2018-03-31T05:44:59.766Z,11.25
2018-03-31T05:47:27.918Z,11.65
2018-03-31T05:49:55.336Z,10.43
2018-03-31T05:52:22.795Z,10.23
2018-03-31T05:54:50.168Z,10.60
2018-03-31T05:57:17.626Z,11.27
2018-03-31T05:59:45.779Z,10.30
2018-03-31T06:02:13.186Z,10.63
2018-03-31T06:04:40.555Z,11.50
2018-03-31T06:07:08.720Z,11.12
2018-03-31T06:09:36.220Z,10.77
2018-03-31T06:12:03.600Z,10.18
2018-03-31T06:14:31.017Z,10.15
2018-03-31T06:16:58.443Z,11.07
2018-03-31T06:19:25.846Z,11.27
2018-03-31T06:21:53.228Z,11.70
2018-03-31T06:24:20.596Z,10.50
2018-03-31T06:26:48.016Z,11.05
2018-03-31T06:29:15.383Z,10.00
2018-03-31T06:31:42.788Z,10.20
2018-03-31T06:34:10.939Z,11.63
2018-03-31T06:36:38.345Z,11.60
2018-03-31T06:39:05.735Z,11.10
2018-03-31T06:41:33.112Z,10.75
2018-03-31T06:44:01.268Z,11.00
2018-03-31T06:46:28.812Z,11.68
2018-03-31T06:48:56.236Z,11.88
2018-03-31T06:51:23.633Z,11.75
2018-03-31T06:53:51.051Z,11.30
2018-03-31T06:56:18.419Z,14.15
2018-03-31T06:58:45.838Z,11.98
2018-03-31T07:01:13.306Z,10.20
2018-03-31T07:03:40.680Z,12.23
2018-03-31T07:06:08.119Z,11.70
2018-03-31T07:08:35.487Z,11.73
2018-03-31T07:11:02.884Z,11.75
2018-03-31T07:13:30.271Z,11.10
2018-03-31T07:15:57.645Z,12.32
2018-03-31T07:18:25.048Z,11.52
2018-03-31T07:20:52.444Z,10.80
2018-03-31T07:23:19.824Z,11.48
2018-03-31T07:25:47.263Z,12.45
2018-03-31T07:28:14.654Z,12.00
2018-03-31T07:30:42.067Z,12.85
2018-03-31T07:33:09.448Z,12.50
2018-03-31T07:35:36.838Z,11.98
2018-03-31T07:38:04.996Z,12.63
2018-03-31T07:40:32.400Z,11.73
2018-03-31T07:42:59.787Z,12.43
2018-03-31T07:45:27.159Z,14.80
2018-03-31T07:47:54.555Z,12.68
2018-03-31T07:50:22.012Z,11.90
2018-03-31T07:52:49.723Z,13.27
2018-03-31T07:55:17.086Z,13.65
2018-03-31T07:57:44.495Z,12.48
2018-03-31T08:00:11.873Z,14.40
2018-03-31T08:02:39.300Z,12.80
2018-03-31T08:05:06.712Z,12.57
2018-03-31T08:07:34.094Z,13.05
2018-03-31T08:10:01.513Z,13.48
2018-03-31T08:12:28.876Z,14.05
2018-03-31T08:14:56.381Z,13.05
2018-03-31T08:17:23.788Z,12.65
2018-03-31T08:19:51.202Z,14.43
2018-03-31T08:22:18.572Z,13.65
2018-03-31T08:24:45.967Z,13.98
2018-03-31T08:27:14.159Z,14.65
2018-03-31T08:29:41.556Z,14.52
2018-03-31T08:32:08.952Z,14.13
2018-03-31T08:34:38.040Z,13.38
2018-03-31T08:37:06.250Z,13.27
2018-03-31T08:39:33.661Z,12.30
2018-03-31T08:42:01.852Z,14.63
2018-03-31T08:44:29.232Z,13.98
2018-03-31T08:46:56.680Z,14.10
2018-03-31T08:49:24.059Z,13.75
2018-03-31T08:51:51.443Z,14.15
2018-03-31T08:54:18.991Z,14.68
2018-03-31T08:56:46.375Z,15.35
2018-03-31T08:59:14.530Z,14.45
2018-03-31T09:01:42.046Z,16.62
2018-03-31T09:04:09.500Z,15.90
2018-03-31T09:06:36.892Z,15.85
2018-03-31T09:09:04.765Z,14.90
2018-03-31T09:11:32.193Z,14.38
2018-03-31T09:13:59.608Z,17.77
2018-03-31T09:16:27.007Z,16.67
2018-03-31T09:18:54.386Z,15.10
2018-03-31T09:21:21.820Z,14.52
2018-03-31T09:23:49.253Z,17.90
2018-03-31T09:26:16.653Z,16.62
2018-03-31T09:28:44.696Z,19.10
2018-03-31T09:31:12.079Z,16.85
2018-03-31T09:33:39.481Z,16.73
2018-03-31T09:36:06.856Z,16.15
2018-03-31T09:38:34.262Z,17.37
2018-03-31T09:41:02.419Z,17.30
2018-03-31T09:43:30.583Z,17.00
2018-03-31T09:45:57.978Z,17.23
2018-03-31T09:48:25.369Z,16.42
2018-03-31T09:50:52.800Z,14.82
2018-03-31T09:53:20.180Z,16.33
2018-03-31T09:55:47.591Z,16.90
2018-03-31T09:58:14.973Z,15.23
2018-03-31T10:00:42.411Z,17.02
2018-03-31T10:03:09.801Z,16.50
2018-03-31T10:05:37.223Z,16.50
2018-03-31T10:08:04.679Z,16.60
2018-03-31T10:10:32.072Z,17.52
2018-03-31T10:12:59.711Z,17.77
2018-03-31T10:15:27.121Z,17.48
2018-03-31T10:17:55.304Z,18.60
2018-03-31T10:20:22.692Z,16.95
2018-03-31T10:22:50.141Z,17.02
2018-03-31T10:25:17.603Z,16.12
2018-03-31T10:27:44.994Z,16.17
2018-03-31T10:30:12.396Z,17.35
2018-03-31T10:32:39.771Z,15.52
2018-03-31T10:35:07.211Z,16.73
2018-03-31T10:37:34.615Z,16.55
2018-03-31T10:40:02.007Z,16.95
2018-03-31T10:42:29.423Z,17.98
2018-03-31T10:44:56.817Z,16.67
2018-03-31T10:47:24.241Z,16.05
2018-03-31T10:49:51.645Z,18.33
2018-03-31T10:52:19.066Z,16.98
2018-03-31T10:54:47.223Z,17.75
2018-03-31T10:57:15.135Z,18.60
2018-03-31T10:59:42.561Z,19.40
2018-03-31T11:02:10.732Z,19.13
2018-03-31T11:04:38.941Z,18.23
2018-03-31T11:07:06.360Z,17.70
2018-03-31T11:09:34.887Z,17.30
2018-03-31T11:12:02.304Z,16.50
2018-03-31T11:14:30.512Z,16.57
2018-03-31T11:16:57.900Z,15.63
2018-03-31T11:19:25.312Z,15.93
2018-03-31T11:21:52.712Z,17.40
2018-03-31T11:24:20.227Z,19.40
2018-03-31T11:26:47.628Z,17.57
2018-03-31T11:29:15.040Z,15.30
2018-03-31T11:31:42.496Z,19.13
2018-03-31T11:34:09.908Z,18.20
2018-03-31T11:36:38.071Z,17.90
2018-03-31T11:39:05.458Z,16.33
2018-03-31T11:41:32.884Z,17.48
2018-03-31T11:44:00.291Z,18.50
2018-03-31T11:46:27.688Z,16.07
2018-03-31T11:48:55.146Z,16.67
2018-03-31T11:51:22.501Z,17.50
2018-03-31T11:53:49.895Z,17.27
2018-03-31T11:56:17.332Z,17.73
2018-03-31T11:58:45.522Z,17.03
2018-03-31T12:01:12.906Z,17.53
2018-03-31T12:03:40.405Z,17.07
2018-03-31T12:06:08.617Z,17.00
2018-03-31T12:08:36.104Z,17.17
2018-03-31T12:11:03.526Z,18.07
2018-03-31T12:13:30.919Z,17.03
2018-03-31T12:15:58.327Z,16.03
2018-03-31T12:18:25.734Z,17.80
2018-03-31T12:20:53.154Z,19.10
2018-03-31T12:23:20.561Z,18.20
2018-03-31T12:25:47.952Z,18.77
2018-03-31T12:28:15.380Z,18.15
2018-03-31T12:30:43.555Z,17.35
2018-03-31T12:33:11.749Z,17.90
2018-03-31T12:35:39.145Z,19.70
2018-03-31T12:38:06.557Z,17.70
2018-03-31T12:40:33.949Z,17.77
2018-03-31T12:43:01.364Z,18.27
2018-03-31T12:45:28.751Z,18.30
2018-03-31T12:47:56.151Z,19.10
2018-03-31T12:50:24.354Z,19.37
2018-03-31T12:52:51.755Z,19.90
2018-03-31T12:55:19.184Z,18.00
2018-03-31T12:57:46.576Z,17.93
2018-03-31T13:00:13.975Z,19.23
2018-03-31T13:02:41.385Z,19.33
2018-03-31T13:05:08.786Z,18.43
2018-03-31T13:07:36.203Z,20.27
2018-03-31T13:10:03.597Z,19.20
2018-03-31T13:12:31.030Z,19.57
2018-03-31T13:14:59.217Z,17.60
2018-03-31T13:17:26.771Z,18.80
2018-03-31T13:19:54.254Z,24.87
2018-03-31T13:22:21.675Z,23.03
2018-03-31T13:24:49.860Z,21.23
2018-03-31T13:27:17.256Z,17.83
2018-03-31T13:29:44.643Z,19.73
2018-03-31T13:32:12.827Z,17.60
2018-03-31T13:34:41.000Z,18.07
2018-03-31T13:37:09.157Z,19.43
2018-03-31T13:39:37.340Z,19.07
2018-03-31T13:42:05.557Z,21.57
2018-03-31T13:44:32.952Z,22.67
2018-03-31T13:47:00.348Z,24.00
2018-03-31T13:49:27.778Z,34.47
2018-03-31T13:51:56.947Z,61.53
2018-03-31T13:54:24.372Z,32.97
2018-03-31T13:56:51.818Z,24.17
2018-03-31T13:59:19.294Z,25.43
2018-03-31T14:01:46.724Z,25.90
2018-03-31T14:04:14.136Z,20.67
2018-03-31T14:06:41.556Z,20.93
2018-03-31T14:09:08.944Z,18.47
2018-03-31T14:11:36.367Z,20.13
2018-03-31T14:14:03.758Z,19.50
2018-03-31T14:16:31.140Z,18.10
2018-03-31T14:18:58.553Z,20.17
2018-03-31T14:21:25.964Z,20.20
2018-03-31T14:23:53.383Z,21.60
2018-03-31T14:26:20.933Z,19.37
2018-03-31T14:28:48.324Z,19.70
2018-03-31T14:31:15.801Z,19.70
2018-03-31T14:33:43.216Z,20.37
2018-03-31T14:36:11.427Z,22.70
2018-03-31T14:38:38.839Z,24.52
2018-03-31T14:41:07.046Z,29.13
2018-03-31T14:43:34.456Z,24.63
2018-03-31T14:46:01.844Z,22.30
2018-03-31T14:48:29.255Z,21.80
2018-03-31T14:50:56.646Z,22.60
2018-03-31T14:53:24.842Z,22.70
2018-03-31T14:55:52.250Z,21.20
2018-03-31T14:58:19.640Z,22.30
2018-03-31T15:00:47.060Z,21.23
2018-03-31T15:03:14.455Z,21.10
2018-03-31T15:05:41.888Z,19.30
2018-03-31T15:08:10.063Z,20.93
2018-03-31T15:10:38.308Z,21.40
2018-03-31T15:13:05.660Z,19.60
2018-03-31T15:15:33.087Z,21.03
2018-03-31T15:18:00.541Z,22.10
2018-03-31T15:20:27.923Z,22.80
2018-03-31T15:22:55.340Z,22.00
2018-03-31T15:25:22.753Z,23.20
2018-03-31T15:27:50.144Z,21.83
2018-03-31T15:30:17.565Z,26.03
2018-03-31T15:32:45.740Z,24.03
2018-03-31T15:35:13.675Z,22.93
2018-03-31T15:37:41.083Z,22.33
2018-03-31T15:40:21.560Z,22.65
2018-03-31T15:42:49.085Z,23.80
2018-03-31T15:45:17.259Z,24.93
2018-03-31T15:47:45.464Z,23.30
2018-03-31T15:50:12.847Z,26.27
2018-03-31T15:52:40.257Z,24.93
2018-03-31T15:55:07.668Z,26.95
2018-03-31T15:57:35.097Z,23.87
2018-03-31T16:00:02.526Z,24.97
2018-03-31T16:02:29.978Z,26.17
2018-03-31T16:04:58.151Z,23.63
2018-03-31T16:07:25.567Z,22.60
2018-03-31T16:09:52.955Z,25.27
2018-03-31T16:12:20.446Z,26.35
2018-03-31T16:14:47.872Z,25.88
2018-03-31T16:17:15.749Z,28.05
2018-03-31T16:19:57.104Z,25.10
2018-03-31T16:22:24.508Z,24.67
2018-03-31T16:24:52.671Z,26.87
2018-03-31T16:27:20.064Z,24.13
2018-03-31T16:29:47.464Z,23.97
2018-03-31T16:32:14.883Z,24.60
2018-03-31T16:34:42.325Z,24.50
2018-03-31T16:37:10.480Z,25.70
2018-03-31T16:39:37.868Z,24.10
2018-03-31T16:42:05.262Z,23.60
2018-03-31T16:44:32.731Z,24.67
2018-03-31T16:47:00.896Z,25.77
2018-03-31T16:49:29.057Z,26.58
2018-03-31T16:51:56.473Z,26.95
2018-03-31T16:54:23.884Z,25.48
2018-03-31T16:56:52.036Z,25.27
2018-03-31T16:59:19.430Z,26.85
2018-03-31T17:01:46.831Z,23.80
2018-03-31T17:04:14.219Z,25.85
2018-03-31T17:06:42.388Z,27.15
2018-03-31T17:09:10.561Z,24.87
2018-03-31T17:11:38.729Z,24.77
2018-03-31T17:14:06.117Z,27.15
2018-03-31T17:16:33.515Z,27.33
2018-03-31T17:19:00.895Z,28.08
2018-03-31T17:21:29.049Z,27.13
2018-03-31T17:23:56.452Z,26.85
2018-03-31T17:26:23.872Z,27.02
2018-03-31T17:28:51.308Z,26.98
2018-03-31T17:31:18.900Z,29.52
2018-03-31T17:33:47.076Z,28.73
2018-03-31T17:36:15.222Z,30.92
2018-03-31T17:38:42.674Z,31.55
2018-03-31T17:41:10.049Z,31.17
2018-03-31T17:43:37.454Z,30.90
2018-03-31T17:46:04.849Z,31.10
2018-03-31T17:48:32.252Z,30.52
2018-03-31T17:50:59.648Z,32.70
2018-03-31T17:53:27.067Z,32.13
2018-03-31T17:55:54.455Z,32.97
2018-03-31T17:58:21.857Z,29.10
2018-03-31T18:00:49.321Z,29.87
2018-03-31T18:03:16.711Z,30.23
2018-03-31T18:05:44.091Z,31.52
2018-03-31T18:08:11.486Z,31.10
2018-03-31T18:10:38.887Z,32.08
2018-03-31T18:13:06.267Z,32.45
2018-03-31T18:15:34.487Z,32.70
2018-03-31T18:18:02.599Z,33.67
2018-03-31T18:20:30.013Z,30.83
2018-03-31T18:22:57.393Z,34.28
2018-03-31T18:25:24.775Z,35.90
2018-03-31T18:27:52.936Z,33.50
2018-03-31T18:30:20.336Z,30.65
2018-03-31T18:32:47.732Z,31.42
2018-03-31T18:35:15.148Z,34.03
2018-03-31T18:37:42.530Z,33.33
2018-03-31T18:40:09.935Z,33.65
2018-03-31T18:42:38.098Z,35.55
2018-03-31T18:45:06.238Z,34.10
2018-03-31T18:47:33.627Z,34.47
2018-03-31T18:50:01.773Z,34.65
2018-03-31T18:52:29.177Z,35.67
2018-03-31T18:54:56.554Z,35.97
2018-03-31T18:57:23.932Z,34.17
2018-03-31T18:59:51.328Z,35.45
2018-03-31T19:02:19.467Z,34.45
2018-03-31T19:04:46.871Z,33.42
2018-03-31T19:07:14.268Z,36.95
2018-03-31T19:09:41.639Z,38.33
2018-03-31T19:12:09.071Z,37.67
2018-03-31T19:14:41.983Z,39.95
2018-03-31T19:17:14.316Z,40.35
2018-03-31T19:19:41.724Z,39.42
2018-03-31T19:22:09.899Z,37.95
2018-03-31T19:24:43.571Z,39.13
2018-03-31T19:27:11.176Z,39.80
2018-03-31T19:29:38.552Z,40.15
2018-03-31T19:32:05.927Z,41.75
2018-03-31T19:34:33.396Z,40.28
2018-03-31T19:37:00.728Z,38.70
2018-03-31T19:39:33.738Z,38.10
2018-03-31T19:42:01.110Z,40.25
2018-03-31T19:44:29.279Z,33.90
2018-03-31T19:46:57.423Z,33.67
2018-03-31T19:49:24.948Z,34.08
2018-03-31T19:51:52.319Z,34.60
2018-03-31T19:54:19.692Z,32.22
2018-03-31T19:56:47.083Z,35.63
2018-03-31T19:59:15.216Z,33.50
2018-03-31T20:01:42.607Z,33.20
2018-03-31T20:04:10.764Z,31.83
2018-03-31T20:06:38.162Z,31.30
2018-03-31T20:09:05.539Z,32.38
2018-03-31T20:11:32.908Z,31.25
2018-03-31T20:14:00.304Z,32.28
2018-03-31T20:16:28.453Z,31.58
2018-03-31T20:18:55.823Z,26.55
2018-03-31T20:21:23.980Z,28.85
2018-03-31T20:23:51.354Z,27.52
2018-03-31T20:26:19.516Z,26.00
2018-03-31T20:28:46.892Z,29.58
2018-03-31T20:31:14.279Z,28.73
2018-03-31T20:33:41.671Z,28.35
2018-03-31T20:36:09.052Z,26.62
2018-03-31T20:38:37.215Z,28.02
2018-03-31T20:41:05.391Z,28.27
2018-03-31T20:43:33.519Z,26.50
2018-03-31T20:46:00.926Z,27.73
2018-03-31T20:48:28.311Z,27.30
2018-03-31T20:50:55.715Z,24.15
2018-03-31T20:53:23.083Z,22.98
2018-03-31T20:55:51.248Z,23.87
2018-03-31T20:58:19.404Z,26.55
2018-03-31T21:00:46.771Z,26.42
2018-03-31T21:03:14.936Z,25.75
2018-03-31T21:05:42.308Z,25.50
2018-03-31T21:08:10.474Z,25.77
2018-03-31T21:10:38.611Z,26.58
2018-03-31T21:13:06.009Z,25.92
2018-03-31T21:15:34.181Z,28.25
2018-03-31T21:18:02.328Z,27.42
2018-03-31T21:20:29.715Z,29.45
2018-03-31T21:22:57.120Z,28.50
2018-03-31T21:25:24.512Z,29.17
2018-03-31T21:27:52.656Z,27.27
2018-03-31T21:30:20.041Z,27.30
2018-03-31T21:32:48.176Z,24.95
2018-03-31T21:35:15.583Z,28.27
2018-03-31T21:37:42.956Z,24.95
2018-03-31T21:40:10.356Z,24.02
2018-03-31T21:42:37.768Z,24.60
2018-03-31T21:45:05.139Z,23.15
2018-03-31T21:47:32.513Z,24.20
2018-03-31T21:49:59.904Z,22.42
2018-03-31T21:52:27.312Z,23.65
2018-03-31T21:54:54.688Z,22.70
2018-03-31T21:57:22.100Z,21.90
2018-03-31T21:59:49.472Z,22.90
2018-03-31T22:02:16.844Z,24.00
2018-03-31T22:04:44.247Z,23.98
2018-03-31T22:07:11.655Z,21.45
2018-03-31T22:09:39.052Z,18.70
2018-03-31T22:12:06.443Z,21.02
2018-03-31T22:14:39.464Z,18.48
2018-03-31T22:17:07.619Z,17.30
2018-03-31T22:19:35.007Z,16.20
2018-03-31T22:22:02.449Z,17.05
2018-03-31T22:24:30.607Z,18.15
2018-03-31T22:26:57.997Z,16.27
2018-03-31T22:29:25.400Z,18.05
2018-03-31T22:31:52.782Z,14.30
2018-03-31T22:34:20.923Z,16.27
2018-03-31T22:36:48.334Z,14.48
2018-03-31T22:39:15.707Z,15.00
2018-03-31T22:41:43.082Z,17.55
2018-03-31T22:44:10.495Z,14.27
2018-03-31T22:46:37.890Z,15.00
2018-03-31T22:49:05.264Z,15.07
2018-03-31T22:51:32.672Z,14.02
2018-03-31T22:54:00.050Z,13.57
2018-03-31T22:56:27.435Z,14.10
2018-03-31T22:58:54.833Z,13.90
2018-03-31T23:01:22.212Z,14.65
2018-03-31T23:03:49.611Z,14.15
2018-03-31T23:06:17.752Z,13.60
2018-03-31T23:08:45.128Z,13.30
2018-03-31T23:11:12.519Z,13.65
2018-03-31T23:13:39.911Z,13.88
2018-03-31T23:16:07.284Z,13.40
2018-03-31T23:18:34.701Z,13.77
2018-03-31T23:21:02.080Z,12.82
2018-03-31T23:23:29.455Z,12.80
2018-03-31T23:25:56.909Z,12.00
2018-03-31T23:28:24.247Z,12.07
2018-03-31T23:30:51.651Z,10.15
2018-03-31T23:33:19.028Z,10.75
2018-03-31T23:35:46.412Z,11.48
2018-03-31T23:38:13.823Z,11.12
2018-03-31T23:40:41.228Z,9.88
2018-03-31T23:43:08.599Z,9.88
2018-03-31T23:45:36.771Z,9.90
2018-03-31T23:48:04.931Z,9.35
2018-03-31T23:50:32.323Z,8.10
2018-03-31T23:52:59.689Z,9.77
2018-03-31T23:55:27.087Z,9.73
2018-03-31T23:57:54.459Z,8.15
